Time;durP1;ratioP1;P1;durP2;ratioP2;P2;SDS_P1;SDS_P2;PMS_P1;PMS_P2;Temp;Humidity;BMP_temperature;BMP_pressure;BME280_temperature;BME280_humidity;BME280_pressure;Samples;Min_cycle;Max_cycle;Signal;HPM_P1;HPM_P2
2022/05/08 00:01:10;;;;;;;26.38;17.05;;;;;;;;;;7330789;19;161863;-18
2022/05/08 00:03:41;;;;;;;23.30;16.65;;;;;;;;;;7328941;19;162710;-18
2022/05/08 00:06:13;;;;;;;21.92;15.93;;;;;;;;;;7329206;19;154117;-17
2022/05/08 00:08:44;;;;;;;23.70;16.13;;;;;;;;;;7326945;19;153616;-18
2022/05/08 00:11:15;;;;;;;22.88;15.73;;;;;;;;;;7331165;19;161805;-18
2022/05/08 00:13:49;;;;;;;22.08;15.88;;;;;;;;;;7328706;19;162509;-18
2022/05/08 00:16:21;;;;;;;22.42;15.35;;;;;;;;;;7332545;19;154156;-18
2022/05/08 00:18:53;;;;;;;21.95;16.05;;;;;;;;;;7337380;19;153750;-18
2022/05/08 00:21:24;;;;;;;24.30;16.37;;;;;;;;;;7342745;19;161959;-19
2022/05/08 00:23:55;;;;;;;17.73;13.57;;;;;;;;;;7345946;19;162564;-18
2022/05/08 00:26:28;;;;;;;20.77;13.35;;;;;;;;;;7344574;19;153854;-18
2022/05/08 00:29:02;;;;;;;21.42;14.57;;;;;;;;;;7339307;19;153452;-18
2022/05/08 00:31:33;;;;;;;18.73;14.48;;;;;;;;;;7342552;19;162128;-17
2022/05/08 00:34:05;;;;;;;20.23;13.77;;;;;;;;;;7342245;19;162337;-17
2022/05/08 00:36:38;;;;;;;20.65;13.52;;;;;;;;;;7341988;19;154268;-17
2022/05/08 00:39:09;;;;;;;18.55;13.55;;;;;;;;;;7341032;19;153859;-18
2022/05/08 00:41:41;;;;;;;21.05;14.27;;;;;;;;;;7341963;19;162175;-18
2022/05/08 00:44:15;;;;;;;20.38;13.20;;;;;;;;;;7342020;19;162182;-17
2022/05/08 00:46:48;;;;;;;20.20;13.20;;;;;;;;;;7340982;19;154269;-17
2022/05/08 00:49:20;;;;;;;21.80;13.35;;;;;;;;;;7339902;19;153852;-18
2022/05/08 00:51:51;;;;;;;18.58;13.65;;;;;;;;;;7340873;19;161965;-17
2022/05/08 00:54:22;;;;;;;29.65;21.00;;;;;;;;;;7344971;19;162298;-17
2022/05/08 00:56:57;;;;;;;31.15;23.40;;;;;;;;;;7339207;19;154198;-17
2022/05/08 00:59:31;;;;;;;33.75;23.98;;;;;;;;;;7341552;19;153617;-18
2022/05/08 01:02:03;;;;;;;31.05;21.25;;;;;;;;;;7339356;19;162052;-17
2022/05/08 01:04:34;;;;;;;31.48;22.00;;;;;;;;;;7340513;19;162363;-17
2022/05/08 01:07:06;;;;;;;30.98;21.50;;;;;;;;;;7340471;19;154281;-17
2022/05/08 01:09:37;;;;;;;29.33;20.75;;;;;;;;;;7339471;19;153591;-17
2022/05/08 01:12:11;;;;;;;29.92;21.73;;;;;;;;;;7339979;19;162101;-17
2022/05/08 01:14:45;;;;;;;27.90;19.58;;;;;;;;;;7340855;19;162409;-18
2022/05/08 01:17:17;;;;;;;27.48;20.45;;;;;;;;;;7341267;19;154513;-17
2022/05/08 01:19:48;;;;;;;31.10;20.10;;;;;;;;;;7341245;19;153635;-17
2022/05/08 01:22:23;;;;;;;30.97;20.83;;;;;;;;;;7340873;19;161963;-17
2022/05/08 01:24:55;;;;;;;27.58;19.98;;;;;;;;;;7340634;19;162437;-17
2022/05/08 01:27:26;;;;;;;24.95;17.83;;;;;;;;;;7340900;19;154058;-17
2022/05/08 01:29:58;;;;;;;24.92;17.88;;;;;;;;;;7332002;19;153866;-17
2022/05/08 01:32:29;;;;;;;25.90;19.07;;;;;;;;;;7333150;19;161777;-17
2022/05/08 01:35:01;;;;;;;25.90;19.13;;;;;;;;;;7333114;19;162429;-18
2022/05/08 01:37:35;;;;;;;22.02;16.63;;;;;;;;;;7332010;19;154105;-18
2022/05/08 01:40:07;;;;;;;24.50;17.85;;;;;;;;;;7333591;19;153715;-17
2022/05/08 01:42:39;;;;;;;22.38;17.38;;;;;;;;;;7332718;19;161746;-18
2022/05/08 01:45:11;;;;;;;23.15;16.85;;;;;;;;;;7332930;19;162086;-18
2022/05/08 01:50:27;;;;;;;27.35;17.52;;;;;;;;;;7330409;19;153628;-17
2022/05/08 01:53:00;;;;;;;22.23;16.80;;;;;;;;;;7332703;19;161919;-18
2022/05/08 01:55:32;;;;;;;22.17;16.35;;;;;;;;;;7332769;19;162578;-18
2022/05/08 01:58:03;;;;;;;22.98;17.65;;;;;;;;;;7333166;19;154305;-18
2022/05/08 02:00:35;;;;;;;22.90;18.10;;;;;;;;;;7332791;19;153614;-19
2022/05/08 02:03:07;;;;;;;22.38;16.77;;;;;;;;;;7332392;19;161822;-18
2022/05/08 02:05:42;;;;;;;22.13;16.52;;;;;;;;;;7332223;19;162672;-18
2022/05/08 02:08:16;;;;;;;23.08;16.77;;;;;;;;;;7331569;19;154237;-17
2022/05/08 02:10:50;;;;;;;22.58;16.75;;;;;;;;;;7332524;19;154023;-18
2022/05/08 02:13:22;;;;;;;22.33;15.73;;;;;;;;;;7332155;19;161812;-17
2022/05/08 02:15:53;;;;;;;20.10;15.40;;;;;;;;;;7332250;19;162345;-18
2022/05/08 02:18:24;;;;;;;23.50;16.25;;;;;;;;;;7332404;19;154251;-18
2022/05/08 02:20:57;;;;;;;19.67;15.13;;;;;;;;;;7332434;19;153407;-18
2022/05/08 02:23:31;;;;;;;19.70;14.73;;;;;;;;;;7331868;19;161891;-19
2022/05/08 02:26:03;;;;;;;19.23;15.48;;;;;;;;;;7333542;19;162560;-18
2022/05/08 02:28:34;;;;;;;20.27;14.40;;;;;;;;;;7331933;19;154034;-29
2022/05/08 02:31:05;;;;;;;20.67;14.90;;;;;;;;;;7330638;19;153777;-20
2022/05/08 02:33:36;;;;;;;19.20;14.95;;;;;;;;;;7336062;19;161848;-18
2022/05/08 02:36:09;;;;;;;19.80;14.98;;;;;;;;;;7331506;19;162399;-18
2022/05/08 02:38:43;;;;;;;17.77;13.38;;;;;;;;;;7329468;19;154202;-19
2022/05/08 02:41:14;;;;;;;19.58;14.80;;;;;;;;;;7331160;19;154035;-18
2022/05/08 02:43:45;;;;;;;19.58;14.70;;;;;;;;;;7331515;19;162228;-18
2022/05/08 02:46:17;;;;;;;18.73;13.70;;;;;;;;;;7330116;19;162610;-18
2022/05/08 02:48:48;;;;;;;17.95;14.20;;;;;;;;;;7331440;19;154277;-17
2022/05/08 02:51:19;;;;;;;16.70;12.60;;;;;;;;;;7331643;19;153803;-18
2022/05/08 02:53:53;;;;;;;17.77;13.73;;;;;;;;;;7331031;19;161970;-18
2022/05/08 02:59:12;;;;;;;17.13;13.23;;;;;;;;;;7331580;19;154086;-17
2022/05/08 03:01:44;;;;;;;16.30;12.25;;;;;;;;;;7331253;19;153772;-17
2022/05/08 03:04:15;;;;;;;17.40;13.07;;;;;;;;;;7330869;19;162095;-17
2022/05/08 03:06:46;;;;;;;14.77;12.27;;;;;;;;;;7330582;19;162731;-19
2022/05/08 03:09:20;;;;;;;17.27;12.45;;;;;;;;;;7330459;19;154062;-18
2022/05/08 03:11:52;;;;;;;15.55;12.23;;;;;;;;;;7330988;19;153726;-18
2022/05/08 03:14:24;;;;;;;16.38;12.40;;;;;;;;;;7330548;19;161953;-17
2022/05/08 03:16:55;;;;;;;15.77;12.13;;;;;;;;;;7330561;19;162512;-18
2022/05/08 03:19:26;;;;;;;16.50;12.40;;;;;;;;;;7329395;19;154385;-17
2022/05/08 03:21:57;;;;;;;14.57;12.10;;;;;;;;;;7329519;19;153809;-18
2022/05/08 03:24:31;;;;;;;15.00;11.90;;;;;;;;;;7330354;19;162244;-18
2022/05/08 03:27:03;;;;;;;13.20;10.50;;;;;;;;;;7330280;19;162437;-18
2022/05/08 03:29:34;;;;;;;14.43;11.23;;;;;;;;;;7330378;19;154218;-18
2022/05/08 03:32:06;;;;;;;14.25;10.25;;;;;;;;;;7330384;19;153598;-18
2022/05/08 03:34:40;;;;;;;13.63;11.38;;;;;;;;;;7330016;19;161899;-18
2022/05/08 03:37:12;;;;;;;14.50;10.55;;;;;;;;;;7327806;19;162482;-18
2022/05/08 03:39:46;;;;;;;14.02;10.18;;;;;;;;;;7330453;19;154075;-18
2022/05/08 03:42:18;;;;;;;12.65;9.68;;;;;;;;;;7330107;19;153708;-17
2022/05/08 03:44:49;;;;;;;13.40;11.10;;;;;;;;;;7329893;19;162061;-17
2022/05/08 03:47:20;;;;;;;13.48;10.18;;;;;;;;;;7328338;19;162464;-18
2022/05/08 03:49:51;;;;;;;13.80;10.52;;;;;;;;;;7329215;19;154386;-18
2022/05/08 03:52:23;;;;;;;12.00;9.02;;;;;;;;;;7327897;19;153650;-18
2022/05/08 03:54:57;;;;;;;12.32;9.52;;;;;;;;;;7329051;19;161768;-18
2022/05/08 03:57:28;;;;;;;13.00;10.30;;;;;;;;;;7329243;19;162272;-18
2022/05/08 03:59:59;;;;;;;12.55;9.98;;;;;;;;;;7329680;19;154065;-17
2022/05/08 04:02:31;;;;;;;10.82;9.18;;;;;;;;;;7328236;19;153621;-17
2022/05/08 04:05:05;;;;;;;13.73;9.60;;;;;;;;;;7328968;19;161952;-18
2022/05/08 04:07:37;;;;;;;10.60;9.18;;;;;;;;;;7328890;19;162431;-17
2022/05/08 04:10:12;;;;;;;10.70;8.70;;;;;;;;;;7328807;19;154078;-18
2022/05/08 04:12:46;;;;;;;11.90;9.27;;;;;;;;;;7329189;19;153545;-17
2022/05/08 04:18:02;;;;;;;11.40;8.75;;;;;;;;;;7328627;19;162763;-18
2022/05/08 04:20:34;;;;;;;10.35;8.80;;;;;;;;;;7328914;19;154132;-18
2022/05/08 04:25:53;;;;;;;11.02;8.95;;;;;;;;;;7328403;19;161846;-18
2022/05/08 04:28:24;;;;;;;10.52;8.05;;;;;;;;;;7328404;19;162580;-16
2022/05/08 04:30:56;;;;;;;10.75;8.27;;;;;;;;;;7327526;19;154267;-18
2022/05/08 04:33:27;;;;;;;9.98;8.30;;;;;;;;;;7328519;19;153619;-17
2022/05/08 04:35:58;;;;;;;8.93;7.60;;;;;;;;;;7328199;19;161762;-17
2022/05/08 04:38:29;;;;;;;11.18;9.27;;;;;;;;;;7324335;19;162527;-18
2022/05/08 04:41:03;;;;;;;10.82;8.55;;;;;;;;;;7328254;19;154149;-17
2022/05/08 04:43:35;;;;;;;9.13;7.70;;;;;;;;;;7328333;19;153562;-18
2022/05/08 04:46:06;;;;;;;9.32;8.32;;;;;;;;;;7327788;19;162335;-18
2022/05/08 04:48:37;;;;;;;9.18;7.35;;;;;;;;;;7327596;19;162292;-18
2022/05/08 04:51:09;;;;;;;9.13;7.35;;;;;;;;;;7326676;19;154075;-17
2022/05/08 04:53:40;;;;;;;9.55;7.05;;;;;;;;;;7328057;19;153736;-17
2022/05/08 04:56:14;;;;;;;9.60;7.68;;;;;;;;;;7326238;19;161906;-18
2022/05/08 04:58:45;;;;;;;10.60;7.65;;;;;;;;;;7327505;19;162605;-17
2022/05/08 05:01:17;;;;;;;8.93;7.93;;;;;;;;;;7327749;19;154040;-17
2022/05/08 05:03:48;;;;;;;11.10;8.70;;;;;;;;;;7328514;19;153558;-17
2022/05/08 05:06:20;;;;;;;9.68;7.18;;;;;;;;;;7334057;19;162054;-18
2022/05/08 05:08:52;;;;;;;8.93;7.20;;;;;;;;;;7334033;19;162438;-17
2022/05/08 05:11:26;;;;;;;10.30;7.30;;;;;;;;;;7333179;19;154167;-17
2022/05/08 05:13:57;;;;;;;9.25;7.38;;;;;;;;;;7334407;19;153264;-18
2022/05/08 05:16:28;;;;;;;9.50;7.70;;;;;;;;;;7334980;19;161996;-17
2022/05/08 05:19:00;;;;;;;10.02;7.85;;;;;;;;;;7335933;19;162411;-18
2022/05/08 05:21:31;;;;;;;7.50;6.22;;;;;;;;;;7337349;19;154071;-18
2022/05/08 05:24:02;;;;;;;7.25;5.85;;;;;;;;;;7337264;19;153428;-19
2022/05/08 05:26:36;;;;;;;6.72;5.68;;;;;;;;;;7337108;19;162030;-18
2022/05/08 05:29:08;;;;;;;7.72;6.30;;;;;;;;;;7336751;19;162384;-18
2022/05/08 05:31:39;;;;;;;7.17;5.80;;;;;;;;;;7336342;19;154086;-18
2022/05/08 05:34:11;;;;;;;8.10;5.97;;;;;;;;;;7336755;19;153464;-17
2022/05/08 05:36:42;;;;;;;7.47;5.88;;;;;;;;;;7336108;19;161983;-17
2022/05/08 05:39:13;;;;;;;7.25;6.30;;;;;;;;;;7335987;19;162337;-17
2022/05/08 05:41:47;;;;;;;8.70;5.95;;;;;;;;;;7337344;19;154098;-17
2022/05/08 05:44:18;;;;;;;8.43;5.93;;;;;;;;;;7335303;19;153822;-18
2022/05/08 05:49:33;;;;;;;8.30;5.95;;;;;;;;;;7335602;19;162388;-17
2022/05/08 05:52:06;;;;;;;6.72;6.03;;;;;;;;;;7334471;19;154355;-17
2022/05/08 05:54:37;;;;;;;6.07;5.45;;;;;;;;;;7335203;19;153589;-17
2022/05/08 05:57:11;;;;;;;6.55;5.45;;;;;;;;;;7335859;19;161909;-17
2022/05/08 05:59:42;;;;;;;7.72;6.25;;;;;;;;;;7336040;19;162396;-17
2022/05/08 06:02:14;;;;;;;10.07;6.05;;;;;;;;;;7335584;19;154081;-17
2022/05/08 06:04:45;;;;;;;10.15;6.07;;;;;;;;;;7332761;19;153941;-17
2022/05/08 06:07:16;;;;;;;10.00;6.53;;;;;;;;;;7332507;19;162020;-16
2022/05/08 06:09:48;;;;;;;13.05;6.60;;;;;;;;;;7331280;19;163026;-17
2022/05/08 06:12:21;;;;;;;9.15;6.80;;;;;;;;;;7331026;19;154075;-17
2022/05/08 06:14:53;;;;;;;10.80;7.03;;;;;;;;;;7332429;19;153628;-17
2022/05/08 06:17:24;;;;;;;11.15;7.18;;;;;;;;;;7329798;19;161833;-18
2022/05/08 06:19:55;;;;;;;7.75;6.25;;;;;;;;;;7331972;19;162561;-17
2022/05/08 06:22:27;;;;;;;11.02;6.65;;;;;;;;;;7332299;19;154116;-17
2022/05/08 06:24:58;;;;;;;13.65;6.80;;;;;;;;;;7330908;19;153864;-17
2022/05/08 06:27:32;;;;;;;9.95;6.63;;;;;;;;;;7331775;19;162485;-17
2022/05/08 06:30:04;;;;;;;9.68;6.68;;;;;;;;;;7331546;19;162574;-17
2022/05/08 06:32:37;;;;;;;8.48;5.68;;;;;;;;;;7329216;19;154710;-17
2022/05/08 06:35:19;;;;;;;8.05;4.95;;;;;;;;;;7331891;19;153687;-17
2022/05/08 06:37:51;;;;;;;7.63;5.07;;;;;;;;;;7329632;19;161921;-17
2022/05/08 06:40:22;;;;;;;7.63;5.23;;;;;;;;;;7330230;19;162525;-17
2022/05/08 06:42:56;;;;;;;11.45;5.22;;;;;;;;;;7331728;19;153998;-17
2022/05/08 06:45:28;;;;;;;6.97;5.25;;;;;;;;;;7331666;19;153726;-18
2022/05/08 06:47:59;;;;;;;6.85;5.38;;;;;;;;;;7331029;19;162200;-18
2022/05/08 06:50:33;;;;;;;5.32;4.82;;;;;;;;;;7331366;19;162235;-18
2022/05/08 06:53:06;;;;;;;8.60;5.25;;;;;;;;;;7328762;19;154123;-17
2022/05/08 06:55:38;;;;;;;7.28;5.47;;;;;;;;;;7331489;19;153605;-17
2022/05/08 06:58:12;;;;;;;6.43;4.80;;;;;;;;;;7330760;19;161951;-18
2022/05/08 07:03:27;;;;;;;9.85;5.40;;;;;;;;;;7329997;19;154121;-17
2022/05/08 07:06:00;;;;;;;6.65;5.40;;;;;;;;;;7331128;19;153521;-17
2022/05/08 07:08:33;;;;;;;7.13;5.13;;;;;;;;;;7330607;19;161730;-17
2022/05/08 07:11:04;;;;;;;5.72;4.65;;;;;;;;;;7330606;19;162531;-17
2022/05/08 07:13:38;;;;;;;7.22;5.18;;;;;;;;;;7328829;19;154422;-17
2022/05/08 07:16:10;;;;;;;8.15;4.85;;;;;;;;;;7330938;19;153595;-17
2022/05/08 07:18:41;;;;;;;10.80;5.82;;;;;;;;;;7330216;19;161856;-17
2022/05/08 07:21:12;;;;;;;7.10;5.40;;;;;;;;;;7329845;19;162358;-17
2022/05/08 07:23:44;;;;;;;5.75;4.85;;;;;;;;;;7330644;19;154092;-17
2022/05/08 07:26:15;;;;;;;7.75;4.90;;;;;;;;;;7329280;19;153665;-18
2022/05/08 07:28:49;;;;;;;5.93;4.88;;;;;;;;;;7327105;19;162016;-17
2022/05/08 07:31:20;;;;;;;5.88;4.70;;;;;;;;;;7330084;19;162493;-17
2022/05/08 07:36:12;;;;;;;7.15;4.70;;;;;;;;;;7327865;19;154034;-17
2022/05/08 07:36:40;;;;;;;8.50;4.63;;;;;;;;;;7329695;19;153529;-17
2022/05/08 07:39:11;;;;;;;6.15;4.43;;;;;;;;;;7329757;19;161646;-17
2022/05/08 07:41:43;;;;;;;6.03;4.55;;;;;;;;;;7329776;19;162381;-17
2022/05/08 07:44:17;;;;;;;7.10;5.40;;;;;;;;;;7329735;19;154499;-18
2022/05/08 07:46:48;;;;;;;5.72;4.13;;;;;;;;;;7329896;19;153530;-18
2022/05/08 07:49:19;;;;;;;6.03;4.95;;;;;;;;;;7329705;19;161980;-17
2022/05/08 07:51:51;;;;;;;6.65;4.30;;;;;;;;;;7329361;19;162697;-17
2022/05/08 07:54:22;;;;;;;6.55;5.00;;;;;;;;;;7326993;19;154131;-17
2022/05/08 07:56:53;;;;;;;5.65;4.93;;;;;;;;;;7329534;19;153770;-17
2022/05/08 07:59:27;;;;;;;7.97;5.28;;;;;;;;;;7329164;19;161868;-17
2022/05/08 08:01:58;;;;;;;8.13;4.93;;;;;;;;;;7328835;19;162754;-17
2022/05/08 08:04:30;;;;;;;4.80;4.30;;;;;;;;;;7328033;19;154056;-17
2022/05/08 08:07:01;;;;;;;6.22;5.15;;;;;;;;;;7328683;19;153518;-17
2022/05/08 08:09:33;;;;;;;5.75;4.82;;;;;;;;;;7328657;19;161921;-18
2022/05/08 08:12:08;;;;;;;8.90;4.95;;;;;;;;;;7329250;19;162657;-17
2022/05/08 08:14:42;;;;;;;8.77;5.60;;;;;;;;;;7326421;19;154245;-17
2022/05/08 08:17:17;;;;;;;6.53;4.65;;;;;;;;;;7327526;19;153672;-19
2022/05/08 08:19:52;;;;;;;6.53;5.28;;;;;;;;;;7327320;19;161867;-18
2022/05/08 08:22:24;;;;;;;5.90;4.90;;;;;;;;;;7331895;19;162486;-17
2022/05/08 08:24:57;;;;;;;;;;;;;;;;;;7329365;19;154451;-17
2022/05/08 08:27:28;;;;;;;4.68;4.25;;;;;;;;;;7328685;19;153310;-17
2022/05/08 08:30:03;;;;;;;7.43;4.85;;;;;;;;;;7327941;19;162003;-17
2022/05/08 08:32:34;;;;;;;6.43;4.40;;;;;;;;;;7328370;19;162490;-17
2022/05/08 08:35:06;;;;;;;5.90;4.63;;;;;;;;;;7324327;19;154181;-17
2022/05/08 08:37:37;;;;;;;7.50;5.22;;;;;;;;;;7326573;19;153574;-17
2022/05/08 08:40:10;;;;;;;6.90;4.65;;;;;;;;;;7332629;19;162515;-17
2022/05/08 08:42:42;;;;;;;;;;;;;;;;;;7336195;19;162536;-17
2022/05/08 08:48:11;;;;;;;6.85;4.97;;;;;;;;;;7331855;19;153845;-18
2022/05/08 08:50:43;;;;;;;5.78;4.80;;;;;;;;;;7334326;19;162152;-18
2022/05/08 08:53:16;;;;;;;7.05;4.95;;;;;;;;;;7333977;19;162647;-17
2022/05/08 08:55:51;;;;;;;5.20;4.60;;;;;;;;;;7334487;19;154399;-18
2022/05/08 08:58:23;;;;;;;5.00;4.10;;;;;;;;;;7334505;19;153807;-17
2022/05/08 09:00:57;;;;;;;6.18;4.43;;;;;;;;;;7334501;19;161971;-19
2022/05/08 09:03:30;;;;;;;6.63;4.32;;;;;;;;;;7333993;19;162401;-18
2022/05/08 09:06:02;;;;;;;4.97;4.00;;;;;;;;;;7334650;19;154346;-18
2022/05/08 09:08:35;;;;;;;4.72;4.18;;;;;;;;;;7332855;19;153768;-18
2022/05/08 09:11:07;;;;;;;4.63;3.97;;;;;;;;;;7333802;19;161955;-18
2022/05/08 09:13:51;;;;;;;4.18;3.78;;;;;;;;;;7333120;19;162533;-17
2022/05/08 09:16:25;;;;;;;4.30;3.90;;;;;;;;;;7334229;19;154092;-17
2022/05/08 09:18:56;;;;;;;5.18;4.32;;;;;;;;;;7337848;19;153569;-18
2022/05/08 09:24:15;;;;;;;5.18;4.00;;;;;;;;;;7332108;19;162592;-18
2022/05/08 09:26:47;;;;;;;6.13;4.07;;;;;;;;;;7333760;19;154056;-18
2022/05/08 09:29:25;;;;;;;4.87;3.40;;;;;;;;;;7333813;19;153622;-17
2022/05/08 09:31:58;;;;;;;5.05;3.95;;;;;;;;;;7333295;19;161781;-17
2022/05/08 09:34:30;;;;;;;5.30;3.47;;;;;;;;;;7331487;19;162731;-18
2022/05/08 09:37:08;;;;;;;4.18;3.78;;;;;;;;;;7331953;19;154062;-17
2022/05/08 09:39:40;;;;;;;4.72;4.05;;;;;;;;;;7333225;19;153539;-19
2022/05/08 09:42:39;;;;;;;6.35;3.83;;;;;;;;;;7333598;19;162014;-17
2022/05/08 09:45:12;;;;;;;3.92;3.60;;;;;;;;;;7335637;19;162340;-17
2022/05/08 09:47:52;;;;;;;3.58;3.25;;;;;;;;;;7332955;19;154110;-17
2022/05/08 09:50:23;;;;;;;4.68;3.60;;;;;;;;;;7330746;19;153632;-17
2022/05/08 09:52:55;;;;;;;5.43;3.72;;;;;;;;;;7332248;19;161769;-17
2022/05/08 09:55:27;;;;;;;4.78;3.30;;;;;;;;;;7329465;19;162405;-17
2022/05/08 09:57:58;;;;;;;4.57;3.85;;;;;;;;;;7334657;19;154061;-17
2022/05/08 10:00:30;;;;;;;4.00;3.58;;;;;;;;;;7332331;19;153867;-17
2022/05/08 10:03:06;;;;;;;4.72;3.90;;;;;;;;;;7332016;19;162039;-17
2022/05/08 10:05:39;;;;;;;4.72;3.70;;;;;;;;;;7331571;19;162382;-17
2022/05/08 10:08:10;;;;;;;4.97;3.50;;;;;;;;;;7332279;19;154156;-17
2022/05/08 10:16:48;;;;;;;4.93;4.05;;;;;;;;;;7331435;19;162316;-20
2022/05/08 10:19:55;;;;;;;3.83;3.53;;;;;;;;;;7335539;19;154168;-18
2022/05/08 10:22:48;;;;;;;3.70;3.40;;;;;;;;;;7330692;19;153625;-18
2022/05/08 10:25:20;;;;;;;3.67;3.38;;;;;;;;;;7331500;19;161822;-18
2022/05/08 10:28:08;;;;;;;3.78;3.47;;;;;;;;;;7331569;19;162755;-18
2022/05/08 10:30:40;;;;;;;3.30;3.00;;;;;;;;;;7331780;19;154106;-18
2022/05/08 10:33:11;;;;;;;4.88;3.45;;;;;;;;;;7332019;19;153589;-18
2022/05/08 10:36:09;;;;;;;4.60;3.83;;;;;;;;;;7329948;19;161863;-17
2022/05/08 10:38:43;;;;;;;3.95;3.65;;;;;;;;;;7329242;19;162328;-17
2022/05/08 10:41:44;;;;;;;3.47;3.17;;;;;;;;;;7331484;19;154283;-18
2022/05/08 10:44:37;;;;;;;3.15;2.95;;;;;;;;;;7331524;19;153527;-18
2022/05/08 10:47:44;;;;;;;3.40;3.20;;;;;;;;;;7331027;19;161731;-17
2022/05/08 10:50:16;;;;;;;3.83;3.50;;;;;;;;;;7330519;19;162500;-18
2022/05/08 10:52:50;;;;;;;3.90;3.50;;;;;;;;;;7331226;19;154377;-17
2022/05/08 10:55:29;;;;;;;3.50;3.20;;;;;;;;;;7325417;19;153461;-17
2022/05/08 10:58:00;;;;;;;3.60;3.30;;;;;;;;;;7332880;19;161793;-18
2022/05/08 11:00:33;;;;;;;3.85;3.55;;;;;;;;;;7333459;19;162670;-18
2022/05/08 11:03:05;;;;;;;3.88;3.35;;;;;;;;;;7334611;19;154090;-18
2022/05/08 11:05:38;;;;;;;3.42;2.90;;;;;;;;;;7332426;19;153593;-20
2022/05/08 11:08:11;;;;;;;3.90;3.60;;;;;;;;;;7333054;19;161756;-19
2022/05/08 11:10:45;;;;;;;3.80;3.50;;;;;;;;;;7334025;19;162413;-18
2022/05/08 11:13:18;;;;;;;3.83;3.42;;;;;;;;;;7331779;19;154149;-18
2022/05/08 11:15:51;;;;;;;3.67;2.92;;;;;;;;;;7331079;19;153512;-18
2022/05/08 11:18:24;;;;;;;3.17;2.88;;;;;;;;;;7333091;19;161805;-18
2022/05/08 11:20:57;;;;;;;3.90;3.30;;;;;;;;;;7334042;19;162098;-18
2022/05/08 11:23:30;;;;;;;4.72;3.55;;;;;;;;;;7331823;19;154297;-18
2022/05/08 11:26:06;;;;;;;3.92;3.63;;;;;;;;;;7332860;19;153626;-17
2022/05/08 11:28:39;;;;;;;3.47;2.88;;;;;;;;;;7333504;19;162046;-17
2022/05/08 11:31:21;;;;;;;3.50;3.20;;;;;;;;;;7330474;19;162426;-17
2022/05/08 11:36:37;;;;;;;4.22;3.40;;;;;;;;;;7331442;19;154414;-17
2022/05/08 11:39:13;;;;;;;3.72;3.30;;;;;;;;;;7327614;19;162176;-17
2022/05/08 11:41:50;;;;;;;3.80;3.50;;;;;;;;;;7329370;19;162671;-17
2022/05/08 11:44:24;;;;;;;3.75;3.45;;;;;;;;;;7331575;19;154230;-17
2022/05/08 11:46:57;;;;;;;3.72;3.30;;;;;;;;;;7333693;19;153571;-18
2022/05/08 11:49:29;;;;;;;3.40;3.20;;;;;;;;;;7329585;19;162073;-18
2022/05/08 11:52:02;;;;;;;3.72;3.35;;;;;;;;;;7330113;19;162528;-18
2022/05/08 11:54:36;;;;;;;4.07;3.00;;;;;;;;;;7332987;19;154080;-18
2022/05/08 11:57:17;;;;;;;4.85;3.70;;;;;;;;;;7327624;19;153593;-18
2022/05/08 11:59:50;;;;;;;3.83;3.20;;;;;;;;;;7330571;19;161958;-18
2022/05/08 12:02:39;;;;;;;3.45;3.03;;;;;;;;;;7332079;19;162483;-18
2022/05/08 12:05:19;;;;;;;3.58;3.10;;;;;;;;;;7328810;19;154477;-18
2022/05/08 12:07:51;;;;;;;5.18;3.67;;;;;;;;;;7332578;19;153652;-19
2022/05/08 12:10:37;;;;;;;3.40;3.10;;;;;;;;;;7331661;19;161779;-18
2022/05/08 12:13:11;;;;;;;3.50;3.20;;;;;;;;;;7328468;19;162395;-19
2022/05/08 12:15:42;;;;;;;3.25;3.00;;;;;;;;;;7329687;19;154112;-19
2022/05/08 12:18:14;;;;;;;4.25;3.03;;;;;;;;;;7331725;19;153461;-19
2022/05/08 12:20:45;;;;;;;3.65;3.20;;;;;;;;;;7331041;19;161869;-19
2022/05/08 12:23:19;;;;;;;3.50;3.20;;;;;;;;;;7330827;19;162507;-19
2022/05/08 12:25:53;;;;;;;3.08;2.88;;;;;;;;;;7330209;19;154091;-18
2022/05/08 12:28:30;;;;;;;3.13;2.83;;;;;;;;;;7330892;19;153803;-18
2022/05/08 12:31:01;;;;;;;3.08;2.88;;;;;;;;;;7332155;19;161861;-18
2022/05/08 12:33:32;;;;;;;2.85;2.65;;;;;;;;;;7329265;19;162353;-17
2022/05/08 12:36:03;;;;;;;3.33;3.08;;;;;;;;;;7330219;19;154427;-19
2022/05/08 12:38:35;;;;;;;2.95;2.75;;;;;;;;;;7329895;19;153569;-18
2022/05/08 12:41:06;;;;;;;3.60;3.30;;;;;;;;;;7328610;19;161859;-18
2022/05/08 12:43:40;;;;;;;3.40;3.05;;;;;;;;;;7328468;19;162165;-18
2022/05/08 12:46:13;;;;;;;2.80;2.60;;;;;;;;;;7329427;19;154320;-19
2022/05/08 12:48:44;;;;;;;3.78;3.22;;;;;;;;;;7328473;19;154031;-19
2022/05/08 12:51:16;;;;;;;2.90;2.70;;;;;;;;;;7330331;19;161864;-19
2022/05/08 12:53:48;;;;;;;3.10;2.90;;;;;;;;;;7325826;19;162721;-18
2022/05/08 12:56:20;;;;;;;3.30;3.00;;;;;;;;;;7330297;19;154304;-18
2022/05/08 13:01:37;;;;;;;3.65;2.65;;;;;;;;;;7330783;19;161798;-19
2022/05/08 13:04:08;;;;;;;2.70;2.50;;;;;;;;;;7330691;19;163253;-19
2022/05/08 13:06:41;;;;;;;3.85;3.00;;;;;;;;;;7331596;19;154155;-18
2022/05/08 13:09:13;;;;;;;2.95;2.65;;;;;;;;;;7327412;19;153752;-19
2022/05/08 13:11:44;;;;;;;3.37;2.90;;;;;;;;;;7324264;19;161798;-19
2022/05/08 13:14:18;;;;;;;2.83;2.63;;;;;;;;;;7329405;19;162407;-19
2022/05/08 13:16:50;;;;;;;2.70;2.50;;;;;;;;;;7327213;19;154191;-19
2022/05/08 13:19:21;;;;;;;4.07;3.43;;;;;;;;;;7330063;19;153677;-19
2022/05/08 13:21:53;;;;;;;4.20;3.80;;;;;;;;;;7327855;19;161652;-18
2022/05/08 13:24:24;;;;;;;4.70;4.07;;;;;;;;;;7330924;19;162547;-19
2022/05/08 13:26:57;;;;;;;8.77;6.40;;;;;;;;;;7337322;19;154331;-18
2022/05/08 13:29:34;;;;;;;155.68;74.22;;;;;;;;;;7333995;19;153567;-18
2022/05/08 13:32:06;;;;;;;293.05;150.52;;;;;;;;;;7333669;19;162056;-18
2022/05/08 13:34:37;;;;;;;358.52;192.40;;;;;;;;;;7337862;19;162425;-19
2022/05/08 13:37:08;;;;;;;336.95;174.98;;;;;;;;;;7332647;19;154153;-19
2022/05/08 13:39:40;;;;;;;293.98;154.70;;;;;;;;;;7333755;19;153693;-19
2022/05/08 13:42:15;;;;;;;283.00;138.63;;;;;;;;;;7333050;19;161915;-18
2022/05/08 13:44:50;;;;;;;252.50;132.20;;;;;;;;;;7336588;19;162624;-17
2022/05/08 13:47:21;;;;;;;237.18;125.28;;;;;;;;;;7333546;19;154102;-19
2022/05/08 13:49:54;;;;;;;230.68;122.22;;;;;;;;;;7333252;19;153812;-19
2022/05/08 13:52:26;;;;;;;228.45;120.90;;;;;;;;;;7331097;19;161920;-18
2022/05/08 13:54:57;;;;;;;210.30;111.38;;;;;;;;;;7335586;19;162758;-19
2022/05/08 13:57:32;;;;;;;219.77;118.68;;;;;;;;;;7331952;19;154049;-19
2022/05/08 14:00:11;;;;;;;227.50;116.78;;;;;;;;;;7333040;19;153708;-19
2022/05/08 14:02:44;;;;;;;222.10;117.53;;;;;;;;;;7332416;19;161907;-19
2022/05/08 14:05:16;;;;;;;219.87;114.67;;;;;;;;;;7335786;19;162512;-19
2022/05/08 14:07:50;;;;;;;218.73;117.80;;;;;;;;;;7334349;19;154074;-18
2022/05/08 14:10:22;;;;;;;214.70;113.22;;;;;;;;;;7332505;19;153685;-19
2022/05/08 14:12:53;;;;;;;222.40;116.45;;;;;;;;;;7332451;19;162662;-19
2022/05/08 14:15:28;;;;;;;217.93;114.82;;;;;;;;;;7332217;19;162452;-18
2022/05/08 14:18:00;;;;;;;213.88;114.82;;;;;;;;;;7330961;19;154549;-19
2022/05/08 14:20:32;;;;;;;201.30;110.00;;;;;;;;;;7332650;19;153778;-18
2022/05/08 14:23:03;;;;;;;206.57;110.93;;;;;;;;;;7332138;19;161868;-19
2022/05/08 14:25:35;;;;;;;201.30;107.70;;;;;;;;;;7331980;19;162464;-18
2022/05/08 14:28:07;;;;;;;207.40;110.50;;;;;;;;;;7335415;19;153852;-19
2022/05/08 14:36:01;;;;;;;202.75;106.43;;;;;;;;;;7332316;19;154303;-19
2022/05/08 14:36:16;;;;;;;201.18;106.22;;;;;;;;;;7330835;19;162486;-19
2022/05/08 14:38:47;;;;;;;194.77;105.97;;;;;;;;;;7329247;19;154735;-19
2022/05/08 14:41:19;;;;;;;194.30;108.10;;;;;;;;;;7331836;19;153697;-18
2022/05/08 14:43:50;;;;;;;196.82;107.25;;;;;;;;;;7334454;19;161990;-19
2022/05/08 14:46:25;;;;;;;197.85;104.25;;;;;;;;;;7331179;19;162530;-19
2022/05/08 14:48:56;;;;;;;200.82;106.85;;;;;;;;;;7330333;19;154132;-19
2022/05/08 14:51:28;;;;;;;186.70;99.68;;;;;;;;;;7331483;19;153720;-19
2022/05/08 14:53:59;;;;;;;183.63;99.32;;;;;;;;;;7331120;19;162118;-19
2022/05/08 14:56:32;;;;;;;181.20;100.80;;;;;;;;;;7332679;19;162632;-18
2022/05/08 14:59:03;;;;;;;176.98;96.57;;;;;;;;;;7327640;19;154232;-18
2022/05/08 15:01:38;;;;;;;181.43;99.68;;;;;;;;;;7330265;19;153707;-18
2022/05/08 15:04:09;;;;;;;172.05;98.10;;;;;;;;;;7330808;19;161973;-17
2022/05/08 15:06:41;;;;;;;176.10;96.25;;;;;;;;;;7330535;19;162551;-20
2022/05/08 15:09:13;;;;;;;180.65;96.82;;;;;;;;;;7331100;19;154130;-18
2022/05/08 15:11:45;;;;;;;174.43;95.90;;;;;;;;;;7329732;19;153604;-18
2022/05/08 15:14:17;;;;;;;170.50;93.63;;;;;;;;;;7329933;19;162197;-19
2022/05/08 15:16:51;;;;;;;174.50;93.13;;;;;;;;;;7333042;19;162346;-19
2022/05/08 15:19:22;;;;;;;159.52;91.20;;;;;;;;;;7332812;19;154146;-19
2022/05/08 15:21:55;;;;;;;170.30;89.57;;;;;;;;;;7330553;19;153804;-18
2022/05/08 15:24:27;;;;;;;168.60;92.22;;;;;;;;;;7330160;19;161819;-19
2022/05/08 15:26:59;;;;;;;160.05;89.82;;;;;;;;;;7330022;19;162524;-18